Time;durP1;ratioP1;P1;durP2;ratioP2;P2;SDS_P1;SDS_P2;PMS_P1;PMS_P2;Temp;Humidity;BMP_temperature;BMP_pressure;BME280_temperature;BME280_humidity;BME280_pressure;Samples;Min_cycle;Max_cycle;Signal;HPM_P1;HPM_P2
2021/08/04 00:01:24;;;;;;;;;;;;;;;;;;3592114;40;1867;-53
2021/08/04 00:03:49;;;;;;;;;;;;;;;;;;3592129;40;997;-52
2021/08/04 00:06:14;;;;;;;;;;;;;;;;;;3592076;40;831;-53
2021/08/04 00:08:39;;;;;;;;;;;;;;;;;;3592148;40;740;-53
2021/08/04 00:11:04;;;;;;;;;;;;;;;;;;3592400;40;891;-54
2021/08/04 00:13:29;;;;;;;;;;;;;;;;;;3591609;40;725;-53
2021/08/04 00:15:54;;;;;;;;;;;;;;;;;;3591896;40;728;-53
2021/08/04 00:18:20;;;;;;;;;;;;;;;;;;3591537;40;725;-51
2021/08/04 00:20:45;;;;;;;;;;;;;;;;;;3591757;40;1866;-53
2021/08/04 00:23:10;;;;;;;;;;;;;;;;;;3591517;40;1297;-53
2021/08/04 00:25:35;;;;;;;;;;;;;;;;;;3592150;40;786;-51
2021/08/04 00:28:00;;;;;;;;;;;;;;;;;;3591726;40;873;-51
2021/08/04 00:30:25;;;;;;;;;;;;;;;;;;3591501;40;841;-52
2021/08/04 00:32:54;;;;;;;;;;;;;;;;;;3592069;40;837;-51
2021/08/04 00:35:19;;;;;;;;;;;;;;;;;;3592085;40;785;-53
2021/08/04 00:37:44;;;;;;;;;;;;;;;;;;3591658;40;801;-51
2021/08/04 00:40:09;;;;;;;;;;;;;;;;;;3591943;40;745;-51
2021/08/04 00:42:34;;;;;;;;;;;;;;;;;;3591837;40;1883;-51
2021/08/04 00:44:59;;;;;;;;;;;;;;;;;;3592036;40;842;-50
2021/08/04 00:47:24;;;;;;;;;;;;;;;;;;3591824;40;803;-53
2021/08/04 00:49:49;;;;;;;;;;;;;;;;;;3591834;40;711;-50
2021/08/04 00:52:15;;;;;;;;;;;;;;;;;;3591538;40;830;-50
2021/08/04 00:54:40;;;;;;;;;;;;;;;;;;3591831;40;853;-51
2021/08/04 00:57:05;;;;;;;;;;;;;;;;;;3591771;40;737;-50
2021/08/04 00:59:30;;;;;;;;;;;;;;;;;;3591657;40;736;-53
2021/08/04 01:01:55;;;;;;;;;;;;;;;;;;3591679;40;1878;-51
2021/08/04 01:04:21;;;;;;;;;;;;;;;;;;3591999;40;825;-51
2021/08/04 01:06:46;;;;;;;;;;;;;;;;;;3591747;40;793;-53
2021/08/04 01:09:11;;;;;;;;;;;;;;;;;;3591634;40;733;-50
2021/08/04 01:11:36;;;;;;;;;;;;;;;;;;3591527;40;842;-50
2021/08/04 01:14:01;;;;;;;;;;;;;;;;;;3591717;40;710;-51
2021/08/04 01:16:26;;;;;;;;;;;;;;;;;;3591665;40;776;-52
2021/08/04 01:18:52;;;;;;;;;;;;;;;;;;3591420;40;741;-53
2021/08/04 01:21:17;;;;;;;;;;;;;;;;;;3591960;40;1911;-51
2021/08/04 01:23:42;;;;;;;;;;;;;;;;;;3591965;40;1303;-51
2021/08/04 01:26:07;;;;;;;;;;;;;;;;;;3591269;40;813;-50
2021/08/04 01:28:32;;;;;;;;;;;;;;;;;;3591398;40;825;-51
2021/08/04 01:30:58;;;;;;;;;;;;;;;;;;3591556;40;901;-51
2021/08/04 01:33:23;;;;;;;;;;;;;;;;;;3591574;40;717;-52
2021/08/04 01:35:48;;;;;;;;;;;;;;;;;;3591496;40;805;-52
2021/08/04 01:38:13;;;;;;;;;;;;;;;;;;3590921;40;841;-51
2021/08/04 01:40:38;;;;;;;;;;;;;;;;;;3591441;40;1859;-51
2021/08/04 01:43:03;;;;;;;;;;;;;;;;;;3591425;40;717;-50
2021/08/04 01:45:29;;;;;;;;;;;;;;;;;;3591850;40;789;-53
2021/08/04 01:47:54;;;;;;;;;;;;;;;;;;3591249;40;782;-53
2021/08/04 01:50:19;;;;;;;;;;;;;;;;;;3591367;40;781;-53
2021/08/04 01:52:45;;;;;;;;;;;;;;;;;;3591512;40;815;-52
2021/08/04 01:55:10;;;;;;;;;;;;;;;;;;3591389;40;848;-53
2021/08/04 01:57:36;;;;;;;;;;;;;;;;;;3591342;40;914;-54
2021/08/04 02:00:01;;;;;;;;;;;;;;;;;;3591153;40;856;-53
2021/08/04 02:02:26;;;;;;;;;;;;;;;;;;3590812;40;1882;-53
2021/08/04 02:04:52;;;;;;;;;;;;;;;;;;3591040;40;801;-50
2021/08/04 02:07:17;;;;;;;;;;;;;;;;;;3591140;40;796;-53
2021/08/04 02:09:42;;;;;;;;;;;;;;;;;;3590857;40;785;-51
2021/08/04 02:12:08;;;;;;;;;;;;;;;;;;3591025;40;824;-53
2021/08/04 02:14:33;;;;;;;;;;;;;;;;;;3590743;40;868;-51
2021/08/04 02:16:58;;;;;;;;;;;;;;;;;;3590960;40;848;-51
2021/08/04 02:19:23;;;;;;;;;;;;;;;;;;3591056;40;829;-52
2021/08/04 02:21:48;;;;;;;;;;;;;;;;;;3590608;40;1920;-52
2021/08/04 02:24:14;;;;;;;;;;;;;;;;;;3591336;40;735;-52
2021/08/04 02:26:39;;;;;;;;;;;;;;;;;;3591626;40;994;-51
2021/08/04 02:29:04;;;;;;;;;;;;;;;;;;3591167;40;805;-51
2021/08/04 02:31:29;;;;;;;;;;;;;;;;;;3591025;40;822;-50
2021/08/04 02:33:54;;;;;;;;;;;;;;;;;;3591287;40;813;-53
2021/08/04 02:36:19;;;;;;;;;;;;;;;;;;3590969;40;725;-53
2021/08/04 02:38:45;;;;;;;;;;;;;;;;;;3591088;40;823;-51
2021/08/04 02:41:10;;;;;;;;;;;;;;;;;;3590750;40;1935;-53
2021/08/04 02:43:35;;;;;;;;;;;;;;;;;;3591048;40;864;-51
2021/08/04 02:46:00;;;;;;;;;;;;;;;;;;3590779;40;716;-50
2021/08/04 02:48:25;;;;;;;;;;;;;;;;;;3591063;40;833;-51
2021/08/04 02:50:50;;;;;;;;;;;;;;;;;;3592989;40;787;-53
2021/08/04 02:53:15;;;;;;;;;;;;;;;;;;3593199;40;803;-52
2021/08/04 02:55:40;;;;;;;;;;;;;;;;;;3592390;40;718;-51
2021/08/04 02:58:06;;;;;;;;;;;;;;;;;;3592578;40;733;-53
2021/08/04 03:00:31;;;;;;;;;;;;;;;;;;3592199;40;1879;-53
2021/08/04 03:02:56;;;;;;;;;;;;;;;;;;3592288;40;708;-53
2021/08/04 03:05:21;;;;;;;;;;;;;;;;;;3592481;40;809;-52
2021/08/04 03:07:46;;;;;;;;;;;;;;;;;;3592474;40;735;-53
2021/08/04 03:10:11;;;;;;;;;;;;;;;;;;3592379;40;708;-52
2021/08/04 03:12:36;;;;;;;;;;;;;;;;;;3592162;40;853;-53
2021/08/04 03:15:01;;;;;;;;;;;;;;;;;;3592412;40;820;-50
2021/08/04 03:17:27;;;;;;;;;;;;;;;;;;3592314;40;895;-52
2021/08/04 03:19:52;;;;;;;;;;;;;;;;;;3592386;40;901;-51
2021/08/04 03:22:17;;;;;;;;;;;;;;;;;;3592102;40;1875;-52
2021/08/04 03:24:42;;;;;;;;;;;;;;;;;;3592177;40;838;-51
2021/08/04 03:27:07;;;;;;;;;;;;;;;;;;3592361;40;903;-52
2021/08/04 03:29:32;;;;;;;;;;;;;;;;;;3592160;40;717;-51
2021/08/04 03:31:57;;;;;;;;;;;;;;;;;;3591894;40;720;-53
2021/08/04 03:34:22;;;;;;;;;;;;;;;;;;3592464;40;732;-53
2021/08/04 03:36:48;;;;;;;;;;;;;;;;;;3592041;40;811;-52
2021/08/04 03:39:13;;;;;;;;;;;;;;;;;;3591814;40;759;-51
2021/08/04 03:41:38;;;;;;;;;;;;;;;;;;3591934;40;1928;-51
2021/08/04 03:44:03;;;;;;;;;;;;;;;;;;3592229;40;786;-52
2021/08/04 03:46:28;;;;;;;;;;;;;;;;;;3591988;40;787;-51
2021/08/04 03:48:53;;;;;;;;;;;;;;;;;;3592584;40;940;-51
2021/08/04 03:51:18;;;;;;;;;;;;;;;;;;3592371;40;731;-53
2021/08/04 03:53:44;;;;;;;;;;;;;;;;;;3592556;40;732;-51
2021/08/04 03:56:09;;;;;;;;;;;;;;;;;;3592180;40;803;-53
2021/08/04 03:58:34;;;;;;;;;;;;;;;;;;3592556;40;803;-50
2021/08/04 04:00:59;;;;;;;;;;;;;;;;;;3591625;40;1930;-50
2021/08/04 04:03:24;;;;;;;;;;;;;;;;;;3592096;40;704;-52
2021/08/04 04:05:49;;;;;;;;;;;;;;;;;;3592114;40;877;-51
2021/08/04 04:08:14;;;;;;;;;;;;;;;;;;3592466;40;771;-53
2021/08/04 04:10:39;;;;;;;;;;;;;;;;;;3592131;40;709;-53
2021/08/04 04:13:05;;;;;;;;;;;;;;;;;;3591996;40;769;-53
2021/08/04 04:15:30;;;;;;;;;;;;;;;;;;3592301;40;1000;-54
2021/08/04 04:17:55;;;;;;;;;;;;;;;;;;3592377;40;767;-54
2021/08/04 04:20:20;;;;;;;;;;;;;;;;;;3592022;40;750;-52
2021/08/04 04:22:45;;;;;;;;;;;;;;;;;;3591509;40;1924;-53
2021/08/04 04:25:11;;;;;;;;;;;;;;;;;;3592126;40;775;-52
2021/08/04 04:27:36;;;;;;;;;;;;;;;;;;3591554;40;740;-51
2021/08/04 04:30:01;;;;;;;;;;;;;;;;;;3591754;40;826;-50
2021/08/04 04:32:26;;;;;;;;;;;;;;;;;;3591737;40;844;-53
2021/08/04 04:34:51;;;;;;;;;;;;;;;;;;3591702;40;798;-51
2021/08/04 04:37:16;;;;;;;;;;;;;;;;;;3591498;40;781;-53
2021/08/04 04:39:41;;;;;;;;;;;;;;;;;;3591645;40;736;-52
2021/08/04 04:42:06;;;;;;;;;;;;;;;;;;3591909;40;1912;-52
2021/08/04 04:44:32;;;;;;;;;;;;;;;;;;3591841;40;836;-53
2021/08/04 04:46:57;;;;;;;;;;;;;;;;;;3591862;40;817;-52
2021/08/04 04:49:22;;;;;;;;;;;;;;;;;;3592284;40;913;-52
2021/08/04 04:51:47;;;;;;;;;;;;;;;;;;3591628;40;733;-52
2021/08/04 04:54:12;;;;;;;;;;;;;;;;;;3591590;40;773;-50
2021/08/04 04:56:37;;;;;;;;;;;;;;;;;;3591747;40;821;-51
2021/08/04 04:59:02;;;;;;;;;;;;;;;;;;3591591;40;841;-52
2021/08/04 05:01:27;;;;;;;;;;;;;;;;;;3591795;40;1874;-52
2021/08/04 05:03:52;;;;;;;;;;;;;;;;;;3591505;40;864;-51
2021/08/04 05:06:18;;;;;;;;;;;;;;;;;;3591444;40;829;-52
2021/08/04 05:08:43;;;;;;;;;;;;;;;;;;3591706;40;837;-52
2021/08/04 05:11:08;;;;;;;;;;;;;;;;;;3591535;40;930;-53
2021/08/04 05:13:33;;;;;;;;;;;;;;;;;;3591429;40;749;-53
2021/08/04 05:15:58;;;;;;;;;;;;;;;;;;3591666;40;850;-51
2021/08/04 05:18:23;;;;;;;;;;;;;;;;;;3591492;40;809;-53
2021/08/04 05:20:48;;;;;;;;;;;;;;;;;;3591420;40;1920;-51
2021/08/04 05:23:13;;;;;;;;;;;;;;;;;;3591138;40;1198;-54
2021/08/04 05:25:39;;;;;;;;;;;;;;;;;;3591707;40;732;-51
2021/08/04 05:28:04;;;;;;;;;;;;;;;;;;3591126;40;797;-52
2021/08/04 05:30:30;;;;;;;;;;;;;;;;;;3591183;40;828;-53
2021/08/04 05:32:55;;;;;;;;;;;;;;;;;;3591165;40;696;-51
2021/08/04 05:35:20;;;;;;;;;;;;;;;;;;3591156;40;748;-51
2021/08/04 05:37:45;;;;;;;;;;;;;;;;;;3591695;40;909;-50
2021/08/04 05:40:10;;;;;;;;;;;;;;;;;;3591542;40;783;-51
2021/08/04 05:42:35;;;;;;;;;;;;;;;;;;3591360;40;1920;-51
2021/08/04 05:45:00;;;;;;;;;;;;;;;;;;3591657;40;796;-51
2021/08/04 05:47:25;;;;;;;;;;;;;;;;;;3591259;40;812;-52
2021/08/04 05:49:51;;;;;;;;;;;;;;;;;;3591425;40;813;-53
2021/08/04 05:52:16;;;;;;;;;;;;;;;;;;3591596;40;839;-51
2021/08/04 05:54:41;;;;;;;;;;;;;;;;;;3591122;40;845;-53
2021/08/04 05:57:07;;;;;;;;;;;;;;;;;;3591530;40;876;-54
2021/08/04 05:59:32;;;;;;;;;;;;;;;;;;3591517;40;730;-53
2021/08/04 06:01:57;;;;;;;;;;;;;;;;;;3591128;40;1879;-53
2021/08/04 06:04:22;;;;;;;;;;;;;;;;;;3591252;40;910;-51
2021/08/04 06:06:48;;;;;;;;;;;;;;;;;;3590895;40;772;-50
2021/08/04 06:09:13;;;;;;;;;;;;;;;;;;3590980;40;764;-53
2021/08/04 06:11:38;;;;;;;;;;;;;;;;;;3590927;40;869;-51
2021/08/04 06:14:03;;;;;;;;;;;;;;;;;;3591076;40;840;-53
2021/08/04 06:16:28;;;;;;;;;;;;;;;;;;3590854;40;869;-54
2021/08/04 06:18:53;;;;;;;;;;;;;;;;;;3590850;40;820;-53
2021/08/04 06:21:19;;;;;;;;;;;;;;;;;;3590961;40;1875;-51
2021/08/04 06:23:48;;;;;;;;;;;;;;;;;;3592104;40;1519;-52
2021/08/04 06:26:13;;;;;;;;;;;;;;;;;;3592931;40;898;-52
2021/08/04 06:28:38;;;;;;;;;;;;;;;;;;3592248;40;806;-53
2021/08/04 06:31:03;;;;;;;;;;;;;;;;;;3592296;40;774;-54
2021/08/04 06:33:28;;;;;;;;;;;;;;;;;;3592726;40;831;-52
2021/08/04 06:35:53;;;;;;;;;;;;;;;;;;3592588;40;840;-51
2021/08/04 06:38:18;;;;;;;;;;;;;;;;;;3592551;40;802;-52
2021/08/04 06:40:43;;;;;;;;;;;;;;;;;;3592359;40;1917;-51
2021/08/04 06:43:08;;;;;;;;;;;;;;;;;;3593005;40;790;-53
2021/08/04 06:45:34;;;;;;;;;;;;;;;;;;3592435;40;733;-50
2021/08/04 06:47:59;;;;;;;;;;;;;;;;;;3592396;40;788;-52
2021/08/04 06:50:26;;;;;;;;;;;;;;;;;;3592545;40;783;-53
2021/08/04 06:52:53;;;;;;;;;;;;;;;;;;3592354;40;845;-51
2021/08/04 06:55:18;;;;;;;;;;;;;;;;;;3592457;40;791;-51
2021/08/04 06:57:43;;;;;;;;;;;;;;;;;;3592285;40;733;-53
2021/08/04 07:00:08;;;;;;;;;;;;;;;;;;3592350;40;854;-51
2021/08/04 07:02:33;;;;;;;;;;;;;;;;;;3592783;40;1889;-50
2021/08/04 07:04:58;;;;;;;;;;;;;;;;;;3592251;40;809;-53
2021/08/04 07:07:23;;;;;;;;;;;;;;;;;;3592284;40;725;-51
2021/08/04 07:09:49;;;;;;;;;;;;;;;;;;3591947;40;820;-52
2021/08/04 07:12:14;;;;;;;;;;;;;;;;;;3592613;40;787;-52
2021/08/04 07:14:39;;;;;;;;;;;;;;;;;;3592316;40;840;-52
2021/08/04 07:17:04;;;;;;;;;;;;;;;;;;3592033;40;837;-51
2021/08/04 07:19:29;;;;;;;;;;;;;;;;;;3592140;40;881;-51
2021/08/04 07:21:54;;;;;;;;;;;;;;;;;;3591930;40;1929;-50
2021/08/04 07:24:19;;;;;;;;;;;;;;;;;;3592019;40;752;-52
2021/08/04 07:26:44;;;;;;;;;;;;;;;;;;3592160;40;769;-51
2021/08/04 07:29:10;;;;;;;;;;;;;;;;;;3592250;40;836;-52
2021/08/04 07:31:35;;;;;;;;;;;;;;;;;;3592105;40;768;-50
2021/08/04 07:34:00;;;;;;;;;;;;;;;;;;3591909;40;885;-50
2021/08/04 07:36:25;;;;;;;;;;;;;;;;;;3591913;40;829;-53
2021/08/04 07:38:50;;;;;;;;;;;;;;;;;;3592102;40;921;-51
2021/08/04 07:41:15;;;;;;;;;;;;;;;;;;3592185;40;1936;-51
2021/08/04 07:43:40;;;;;;;;;;;;;;;;;;3592063;40;866;-51
2021/08/04 07:46:06;;;;;;;;;;;;;;;;;;3591983;40;883;-51
2021/08/04 07:48:33;;;;;;;;;;;;;;;;;;3592002;40;880;-52
2021/08/04 07:51:00;;;;;;;;;;;;;;;;;;3592598;40;767;-51
2021/08/04 07:53:25;;;;;;;;;;;;;;;;;;3592326;40;820;-52
2021/08/04 07:55:51;;;;;;;;;;;;;;;;;;3592211;40;737;-51
2021/08/04 07:58:16;;;;;;;;;;;;;;;;;;3592545;40;975;-52
2021/08/04 08:00:41;;;;;;;;;;;;;;;;;;3592108;40;1875;-52
2021/08/04 08:03:06;;;;;;;;;;;;;;;;;;3592019;40;850;-53
2021/08/04 08:05:31;;;;;;;;;;;;;;;;;;3592517;40;881;-53
2021/08/04 08:08:03;;;;;;;;;;;;;;;;;;3591839;40;770;-51
2021/08/04 08:10:28;;;;;;;;;;;;;;;;;;3591817;40;761;-50
2021/08/04 08:12:53;;;;;;;;;;;;;;;;;;3591863;40;788;-52
2021/08/04 08:15:18;;;;;;;;;;;;;;;;;;3591979;40;832;-54
2021/08/04 08:17:43;;;;;;;;;;;;;;;;;;3591870;40;848;-51
2021/08/04 08:20:09;;;;;;;;;;;;;;;;;;3591933;40;964;-51
2021/08/04 08:22:34;;;;;;;;;;;;;;;;;;3591506;40;1930;-52
2021/08/04 08:24:59;;;;;;;;;;;;;;;;;;3592283;40;896;-51
2021/08/04 08:27:24;;;;;;;;;;;;;;;;;;3591986;40;784;-52
2021/08/04 08:29:49;;;;;;;;;;;;;;;;;;3591753;40;739;-53
2021/08/04 08:32:14;;;;;;;;;;;;;;;;;;3591925;40;817;-53
2021/08/04 08:34:39;;;;;;;;;;;;;;;;;;3591712;40;821;-52
2021/08/04 08:37:04;;;;;;;;;;;;;;;;;;3591726;40;744;-53
2021/08/04 08:39:31;;;;;;;;;;;;;;;;;;3591671;40;729;-53
2021/08/04 08:41:57;;;;;;;;;;;;;;;;;;3591774;40;1871;-53
2021/08/04 08:44:22;;;;;;;;;;;;;;;;;;3591707;40;876;-51
2021/08/04 08:46:47;;;;;;;;;;;;;;;;;;3591350;40;733;-53
2021/08/04 08:49:12;;;;;;;;;;;;;;;;;;3591779;40;753;-54
2021/08/04 08:51:37;;;;;;;;;;;;;;;;;;3591561;40;835;-53
2021/08/04 08:54:02;;;;;;;;;;;;;;;;;;3591839;40;824;-54
2021/08/04 08:56:27;;;;;;;;;;;;;;;;;;3591593;40;829;-53
2021/08/04 08:58:53;;;;;;;;;;;;;;;;;;3591380;40;852;-53
2021/08/04 09:01:18;;;;;;;;;;;;;;;;;;3591461;40;1869;-51
2021/08/04 09:03:43;;;;;;;;;;;;;;;;;;3591576;40;780;-52
2021/08/04 09:06:08;;;;;;;;;;;;;;;;;;3591733;40;838;-52
2021/08/04 09:08:33;;;;;;;;;;;;;;;;;;3591493;40;762;-53
2021/08/04 09:10:58;;;;;;;;;;;;;;;;;;3591314;40;717;-51
2021/08/04 09:13:23;;;;;;;;;;;;;;;;;;3591587;40;822;-52
2021/08/04 09:15:49;;;;;;;;;;;;;;;;;;3591462;40;808;-51
2021/08/04 09:18:14;;;;;;;;;;;;;;;;;;3591628;40;841;-50
2021/08/04 09:20:39;;;;;;;;;;;;;;;;;;3592137;40;1874;-51
2021/08/04 09:23:04;;;;;;;;;;;;;;;;;;3591253;40;1370;-52
2021/08/04 09:25:29;;;;;;;;;;;;;;;;;;3591809;40;830;-51
2021/08/04 09:27:55;;;;;;;;;;;;;;;;;;3591219;40;729;-50
2021/08/04 09:30:22;;;;;;;;;;;;;;;;;;3591790;40;721;-53
2021/08/04 09:32:47;;;;;;;;;;;;;;;;;;3591509;40;909;-52
2021/08/04 09:35:12;;;;;;;;;;;;;;;;;;3591122;40;700;-52
2021/08/04 09:37:38;;;;;;;;;;;;;;;;;;3591099;40;712;-51
2021/08/04 09:40:03;;;;;;;;;;;;;;;;;;3591648;40;724;-53
2021/08/04 09:42:28;;;;;;;;;;;;;;;;;;3591110;40;1863;-50
2021/08/04 09:44:53;;;;;;;;;;;;;;;;;;3591444;40;756;-51
2021/08/04 09:47:18;;;;;;;;;;;;;;;;;;3591898;40;785;-51
2021/08/04 09:49:44;;;;;;;;;;;;;;;;;;3591585;40;857;-52
2021/08/04 09:52:09;;;;;;;;;;;;;;;;;;3591881;40;825;-51
2021/08/04 09:54:34;;;;;;;;;;;;;;;;;;3591250;40;876;-53
2021/08/04 09:57:01;;;;;;;;;;;;;;;;;;3591020;40;852;-51
2021/08/04 09:59:27;;;;;;;;;;;;;;;;;;3591213;40;826;-51
2021/08/04 10:01:52;;;;;;;;;;;;;;;;;;3591531;40;1867;-50
2021/08/04 10:04:17;;;;;;;;;;;;;;;;;;3591699;40;865;-51
2021/08/04 10:06:42;;;;;;;;;;;;;;;;;;3582178;40;754;-52
2021/08/04 10:09:09;;;;;;;;;;;;;;;;;;3591113;40;709;-52
2021/08/04 10:11:34;;;;;;;;;;;;;;;;;;3591444;40;903;-51
2021/08/04 10:13:59;;;;;;;;;;;;;;;;;;3591566;40;950;-53
2021/08/04 10:16:25;;;;;;;;;;;;;;;;;;3591256;40;833;-51
2021/08/04 10:18:51;;;;;;;;;;;;;;;;;;3591422;40;810;-51
2021/08/04 10:21:16;;;;;;;;;;;;;;;;;;3591150;40;1878;-52
2021/08/04 10:23:41;;;;;;;;;;;;;;;;;;3590627;40;1191;-53
2021/08/04 10:26:06;;;;;;;;;;;;;;;;;;3591397;40;878;-53
2021/08/04 10:28:31;;;;;;;;;;;;;;;;;;3590912;40;860;-53
2021/08/04 10:30:57;;;;;;;;;;;;;;;;;;3591095;40;914;-51
2021/08/04 10:33:22;;;;;;;;;;;;;;;;;;3590749;40;728;-52
2021/08/04 10:35:47;;;;;;;;;;;;;;;;;;3591314;40;776;-53
2021/08/04 10:38:12;;;;;;;;;;;;;;;;;;3590654;40;727;-53
2021/08/04 10:40:37;;;;;;;;;;;;;;;;;;3591059;40;1935;-52
2021/08/04 10:43:02;;;;;;;;;;;;;;;;;;3591370;40;738;-53
2021/08/04 10:45:27;;;;;;;;;;;;;;;;;;3590724;40;786;-51
2021/08/04 10:47:52;;;;;;;;;;;;;;;;;;3590760;40;1011;-54
2021/08/04 10:50:18;;;;;;;;;;;;;;;;;;3591131;40;783;-50
2021/08/04 10:52:43;;;;;;;;;;;;;;;;;;3590628;40;802;-51
2021/08/04 10:55:08;;;;;;;;;;;;;;;;;;3590759;40;968;-50
2021/08/04 10:57:35;;;;;;;;;;;;;;;;;;3590932;40;798;-51
2021/08/04 11:00:00;;;;;;;;;;;;;;;;;;3590470;40;855;-52
2021/08/04 11:02:25;;;;;;;;;;;;;;;;;;3590417;40;1855;-53
2021/08/04 11:04:51;;;;;;;;;;;;;;;;;;3590981;40;779;-52
2021/08/04 11:07:17;;;;;;;;;;;;;;;;;;3590449;40;788;-53
2021/08/04 11:09:42;;;;;;;;;;;;;;;;;;3590662;39;799;-53
2021/08/04 11:12:08;;;;;;;;;;;;;;;;;;3592298;40;700;-53
2021/08/04 11:14:33;;;;;;;;;;;;;;;;;;3592845;40;754;-51
2021/08/04 11:16:58;;;;;;;;;;;;;;;;;;3592578;40;818;-52
2021/08/04 11:19:23;;;;;;;;;;;;;;;;;;3592482;40;845;-53
2021/08/04 11:21:48;;;;;;;;;;;;;;;;;;3591721;40;1913;-51
2021/08/04 11:24:13;;;;;;;;;;;;;;;;;;3592168;40;817;-52
2021/08/04 11:26:38;;;;;;;;;;;;;;;;;;3592239;40;828;-53
2021/08/04 11:29:04;;;;;;;;;;;;;;;;;;3591930;40;719;-51
2021/08/04 11:31:29;;;;;;;;;;;;;;;;;;3592059;40;805;-51
2021/08/04 11:33:55;;;;;;;;;;;;;;;;;;3592334;40;716;-50
2021/08/04 11:36:21;;;;;;;;;;;;;;;;;;3592453;40;898;-53
2021/08/04 11:38:46;;;;;;;;;;;;;;;;;;3592017;40;809;-53
2021/08/04 11:41:12;;;;;;;;;;;;;;;;;;3591957;40;1863;-51
2021/08/04 11:43:37;;;;;;;;;;;;;;;;;;3592516;40;740;-52
2021/08/04 11:46:02;;;;;;;;;;;;;;;;;;3592231;40;737;-52
2021/08/04 11:48:27;;;;;;;;;;;;;;;;;;3592001;40;748;-52
2021/08/04 11:50:52;;;;;;;;;;;;;;;;;;3592233;40;732;-51
2021/08/04 11:53:17;;;;;;;;;;;;;;;;;;3591921;40;823;-51
2021/08/04 11:55:42;;;;;;;;;;;;;;;;;;3592188;40;821;-51
2021/08/04 11:58:07;;;;;;;;;;;;;;;;;;3592154;40;779;-51
2021/08/04 12:00:33;;;;;;;;;;;;;;;;;;3592083;40;1863;-51
2021/08/04 12:02:58;;;;;;;;;;;;;;;;;;3592057;40;912;-51
2021/08/04 12:05:23;;;;;;;;;;;;;;;;;;3592592;40;912;-53
2021/08/04 12:07:48;;;;;;;;;;;;;;;;;;3592105;40;809;-51
2021/08/04 12:10:13;;;;;;;;;;;;;;;;;;3592089;40;715;-51
2021/08/04 12:12:38;;;;;;;;;;;;;;;;;;3591929;40;821;-53
2021/08/04 12:15:04;;;;;;;;;;;;;;;;;;3591852;40;772;-53
2021/08/04 12:17:31;;;;;;;;;;;;;;;;;;3591890;40;804;-52
2021/08/04 12:19:57;;;;;;;;;;;;;;;;;;3592239;40;787;-51
2021/08/04 12:22:22;;;;;;;;;;;;;;;;;;3591736;40;1875;-53
2021/08/04 12:24:47;;;;;;;;;;;;;;;;;;3592232;40;717;-53
2021/08/04 12:27:13;;;;;;;;;;;;;;;;;;3591619;40;716;-53
2021/08/04 12:29:38;;;;;;;;;;;;;;;;;;3591957;40;910;-53
2021/08/04 12:32:03;;;;;;;;;;;;;;;;;;3592030;40;712;-51
2021/08/04 12:34:28;;;;;;;;;;;;;;;;;;3592115;40;1463;-53
2021/08/04 12:36:56;;;;;;;;;;;;;;;;;;3592038;40;839;-51
2021/08/04 12:39:21;;;;;;;;;;;;;;;;;;3591666;40;792;-54
2021/08/04 12:41:50;;;;;;;;;;;;;;;;;;3591560;40;1916;-52
2021/08/04 12:44:15;;;;;;;;;;;;;;;;;;3591728;40;861;-52
2021/08/04 12:46:40;;;;;;;;;;;;;;;;;;3591851;40;693;-52
2021/08/04 12:49:05;;;;;;;;;;;;;;;;;;3591668;40;713;-52
2021/08/04 12:51:30;;;;;;;;;;;;;;;;;;3591605;40;924;-53
2021/08/04 12:53:55;;;;;;;;;;;;;;;;;;3592004;40;779;-52
2021/08/04 12:56:21;;;;;;;;;;;;;;;;;;3591863;40;834;-52
2021/08/04 12:58:46;;;;;;;;;;;;;;;;;;3591314;40;817;-53
2021/08/04 13:01:11;;;;;;;;;;;;;;;;;;3591545;40;1928;-52
2021/08/04 13:03:36;;;;;;;;;;;;;;;;;;3591411;40;624;-51
2021/08/04 13:06:01;;;;;;;;;;;;;;;;;;3591288;40;786;-53
2021/08/04 13:08:26;;;;;;;;;;;;;;;;;;3591583;40;740;-51
2021/08/04 13:10:51;;;;;;;;;;;;;;;;;;3591306;40;878;-51
2021/08/04 13:13:16;;;;;;;;;;;;;;;;;;3591288;40;868;-53
2021/08/04 13:15:42;;;;;;;;;;;;;;;;;;3591316;40;853;-53
2021/08/04 13:18:08;;;;;;;;;;;;;;;;;;3591909;40;775;-51
2021/08/04 13:20:34;;;;;;;;;;;;;;;;;;3591179;40;1870;-52
2021/08/04 13:22:59;;;;;;;;;;;;;;;;;;3591812;40;1249;-52
2021/08/04 13:25:24;;;;;;;;;;;;;;;;;;3591739;40;849;-53
2021/08/04 13:27:50;;;;;;;;;;;;;;;;;;3591811;40;841;-53
2021/08/04 13:30:15;;;;;;;;;;;;;;;;;;3591800;40;899;-54
2021/08/04 13:32:40;;;;;;;;;;;;;;;;;;3591448;40;779;-54
2021/08/04 13:35:05;;;;;;;;;;;;;;;;;;3591585;40;869;-54
2021/08/04 13:37:30;;;;;;;;;;;;;;;;;;3591535;40;729;-53
2021/08/04 13:39:56;;;;;;;;;;;;;;;;;;3591344;40;849;-50
2021/08/04 13:42:21;;;;;;;;;;;;;;;;;;3591313;40;1870;-53
2021/08/04 13:44:46;;;;;;;;;;;;;;;;;;3591292;40;832;-51
2021/08/04 13:47:11;;;;;;;;;;;;;;;;;;3591250;40;804;-52
2021/08/04 13:49:36;;;;;;;;;;;;;;;;;;3591901;40;810;-53
2021/08/04 13:52:01;;;;;;;;;;;;;;;;;;3591640;40;828;-52
2021/08/04 13:54:26;;;;;;;;;;;;;;;;;;3591448;40;827;-52
2021/08/04 13:56:51;;;;;;;;;;;;;;;;;;3591139;40;861;-52
2021/08/04 13:59:17;;;;;;;;;;;;;;;;;;3591124;40;846;-53
2021/08/04 14:01:42;;;;;;;;;;;;;;;;;;3591439;40;1866;-50
2021/08/04 14:04:07;;;;;;;;;;;;;;;;;;3591170;40;1074;-50
2021/08/04 14:06:32;;;;;;;;;;;;;;;;;;3591081;40;712;-53
2021/08/04 14:08:57;;;;;;;;;;;;;;;;;;3591121;40;712;-52
2021/08/04 14:11:22;;;;;;;;;;;;;;;;;;3591288;40;817;-52
2021/08/04 14:13:47;;;;;;;;;;;;;;;;;;3591001;40;833;-52
2021/08/04 14:16:13;;;;;;;;;;;;;;;;;;3591635;40;724;-52
2021/08/04 14:18:38;;;;;;;;;;;;;;;;;;3590814;40;879;-50
2021/08/04 14:21:03;;;;;;;;;;;;;;;;;;3590773;40;1863;-50
2021/08/04 14:23:31;;;;;;;;;;;;;;;;;;3590865;40;1333;-51
2021/08/04 14:26:09;;;;;;;;;;;;;;;;;;;;;
2021/08/04 14:28:31;;;;;;;;;;;;;;;;;;3590582;40;1492;-52
2021/08/04 14:31:00;;;;;;;;;;;;;;;;;;3582119;40;797;-54
2021/08/04 14:33:25;;;;;;;;;;;;;;;;;;3591756;40;1547;-56
2021/08/04 14:35:50;;;;;;;;;;;;;;;;;;3591889;40;926;-55
2021/08/04 14:38:15;;;;;;;;;;;;;;;;;;3591391;40;689;-55
2021/08/04 14:40:40;;;;;;;;;;;;;;;;;;3591662;40;1867;-55
2021/08/04 14:43:05;;;;;;;;;;;;;;;;;;3591088;40;721;-56
2021/08/04 14:45:30;;;;;;;;;;;;;;;;;;3592923;40;961;-56
2021/08/04 14:47:56;;;;;;;;;;;;;;;;;;3593347;40;733;-56
2021/08/04 14:50:21;;;;;;;;;;;;;;;;;;3593590;40;705;-56
2021/08/04 14:52:46;;;;;;;;;;;;;;;;;;3592934;40;720;-56
2021/08/04 14:55:11;;;;;;;;;;;;;;;;;;3593130;40;899;-57
2021/08/04 14:57:38;;;;;;;;;;;;;;;;;;3593463;40;798;-56
2021/08/04 15:00:03;;;;;;;;;;;;;;;;;;3593286;40;1372;-56
2021/08/04 15:02:28;;;;;;;;;;;;;;;;;;3592923;40;1859;-56
2021/08/04 15:04:53;;;;;;;;;;;;;;;;;;3592809;40;744;-56
2021/08/04 15:07:19;;;;;;;;;;;;;;;;;;3593048;40;895;-56
2021/08/04 15:09:44;;;;;;;;;;;;;;;;;;3592722;40;773;-56
2021/08/04 15:12:09;;;;;;;;;;;;;;;;;;3593035;40;839;-56
2021/08/04 15:14:34;;;;;;;;;;;;;;;;;;3593281;40;940;-56
2021/08/04 15:17:00;;;;;;;;;;;;;;;;;;3592695;40;1431;-57
2021/08/04 15:19:25;;;;;;;;;;;;;;;;;;3592861;40;761;-57
2021/08/04 15:21:50;;;;;;;;;;;;;;;;;;3592260;40;1932;-56
2021/08/04 15:24:15;;;;;;;;;;;;;;;;;;3593191;40;763;-56
2021/08/04 15:26:40;;;;;;;;;;;;;;;;;;3593112;40;790;-56
2021/08/04 15:29:05;;;;;;;;;;;;;;;;;;3592382;40;848;-54
2021/08/04 15:31:32;;;;;;;;;;;;;;;;;;3592673;40;821;-56
2021/08/04 15:33:59;;;;;;;;;;;;;;;;;;3592647;40;765;-56
2021/08/04 15:36:24;;;;;;;;;;;;;;;;;;3592292;40;912;-55
2021/08/04 15:38:49;;;;;;;;;;;;;;;;;;3592467;40;721;-57
2021/08/04 15:41:15;;;;;;;;;;;;;;;;;;3592237;40;1929;-56
2021/08/04 15:43:41;;;;;;;;;;;;;;;;;;3592509;40;826;-56
2021/08/04 15:46:06;;;;;;;;;;;;;;;;;;3592462;40;796;-56
2021/08/04 15:48:31;;;;;;;;;;;;;;;;;;3592870;40;740;-59
2021/08/04 15:50:57;;;;;;;;;;;;;;;;;;3592617;40;900;-56
